Time;durP1;ratioP1;P1;durP2;ratioP2;P2;SDS_P1;SDS_P2;PMS_P1;PMS_P2;Temp;Humidity;BMP_temperature;BMP_pressure;BME280_temperature;BME280_humidity;BME280_pressure;Samples;Min_cycle;Max_cycle;Signal;HPM_P1;HPM_P2
2023/03/07 00:01:03;;;;;;;14.13;12.70;;;;;;;3.49;93.38;99220.09;5047137;28;20185;-72
2023/03/07 00:03:29;;;;;;;14.30;12.80;;;;;;;3.49;93.40;99225.22;5041804;28;20178;-73
2023/03/07 00:06:05;;;;;;;13.17;11.90;;;;;;;3.50;93.47;99219.25;5039100;28;20240;-73
2023/03/07 00:08:31;;;;;;;14.40;12.27;;;;;;;3.50;93.23;99226.91;5043739;28;20198;-73
2023/03/07 00:11:02;;;;;;;13.37;12.03;;;;;;;3.52;93.04;99222.66;5055701;28;20231;-72
2023/03/07 00:13:30;;;;;;;14.17;12.67;;;;;;;3.52;92.62;99225.22;5046513;28;20306;-73
2023/03/07 00:16:02;;;;;;;13.83;12.33;;;;;;;3.55;92.39;99227.78;5042418;28;20689;-73
2023/03/07 00:18:27;;;;;;;12.83;11.53;;;;;;;3.55;92.05;99229.47;5042822;28;20218;-74
2023/03/07 00:21:00;;;;;;;13.63;12.23;;;;;;;3.57;91.90;99226.06;5045054;28;20199;-74
2023/03/07 00:23:26;;;;;;;13.37;11.97;;;;;;;3.54;91.89;99223.53;5047773;28;20209;-73
2023/03/07 00:26:07;;;;;;;13.43;12.03;;;;;;;3.57;91.74;99223.50;5041821;28;20196;-73
2023/03/07 00:28:33;;;;;;;14.47;12.93;;;;;;;3.56;91.81;99224.34;5044262;28;20980;-73
2023/03/07 00:31:00;;;;;;;13.93;12.23;;;;;;;3.57;91.75;99226.06;5041322;28;20233;-73
2023/03/07 00:33:26;;;;;;;13.77;11.80;;;;;;;3.57;91.51;99215.84;5042315;28;20274;-72
2023/03/07 00:36:00;;;;;;;13.27;11.87;;;;;;;3.58;91.39;99216.69;5042881;28;20611;-73
2023/03/07 00:38:28;;;;;;;12.80;11.53;;;;;;;3.58;91.29;99211.59;5044680;28;20193;-73
2023/03/07 00:41:02;;;;;;;13.10;11.73;;;;;;;3.60;91.08;99212.44;5037940;28;20182;-73
2023/03/07 00:43:28;;;;;;;13.53;11.50;;;;;;;3.57;91.15;99205.59;5041500;28;20198;-73
2023/03/07 00:45:54;;;;;;;13.10;11.80;;;;;;;3.59;91.08;99210.72;5045802;28;20193;-73
2023/03/07 00:48:21;;;;;;;13.10;11.70;;;;;;;3.58;90.99;99203.91;5060718;28;20202;-73
2023/03/07 00:50:46;;;;;;;13.17;11.77;;;;;;;3.58;90.87;99204.75;5042544;28;20671;-73
2023/03/07 00:53:12;;;;;;;12.63;11.33;;;;;;;3.58;91.24;99207.31;5041844;28;20187;-73
2023/03/07 00:55:37;;;;;;;13.60;11.23;;;;;;;3.61;90.44;99196.25;5031074;28;20187;-73
2023/03/07 00:58:02;;;;;;;12.93;11.63;;;;;;;3.62;89.88;99197.97;5037508;28;20285;-73
2023/03/07 01:00:28;;;;;;;13.30;11.93;;;;;;;3.63;89.67;99186.88;5046903;28;20186;-73
2023/03/07 01:02:53;;;;;;;14.60;12.23;;;;;;;3.68;89.60;99190.28;5041538;28;20285;-73
2023/03/07 01:05:18;;;;;;;13.73;12.33;;;;;;;3.68;88.81;99200.50;5057724;28;20728;-73
2023/03/07 01:07:44;;;;;;;12.70;11.37;;;;;;;3.68;88.93;99195.38;5039380;28;20234;-72
2023/03/07 01:10:10;;;;;;;13.57;11.90;;;;;;;3.66;89.30;99197.09;5042546;28;20191;-73
2023/03/07 01:12:35;;;;;;;12.90;11.60;;;;;;;3.68;89.66;99195.38;5042859;28;20225;-73
2023/03/07 01:15:04;;;;;;;12.83;10.97;;;;;;;3.69;89.49;99186.03;5041761;28;20730;-73
2023/03/07 01:17:29;;;;;;;12.87;11.57;;;;;;;3.70;89.79;99192.84;5043831;28;20659;-74
2023/03/07 01:19:54;;;;;;;12.13;10.97;;;;;;;3.71;89.73;99185.16;5044799;28;20209;-73
2023/03/07 01:22:20;;;;;;;10.87;9.77;;;;;;;3.73;90.01;99190.28;5038294;28;20220;-73
2023/03/07 01:24:45;;;;;;;12.47;11.17;;;;;;;3.77;89.24;99197.09;5038852;28;20260;-73
2023/03/07 01:27:10;;;;;;;13.23;11.73;;;;;;;3.79;89.20;99190.28;5048564;28;21051;-73
2023/03/07 01:29:35;;;;;;;13.57;11.67;;;;;;;3.79;89.26;99197.97;5041497;28;20207;-73
2023/03/07 01:32:01;;;;;;;11.93;10.70;;;;;;;3.80;89.31;99192.84;5040364;28;21858;-73
2023/03/07 01:34:26;;;;;;;12.67;11.23;;;;;;;3.82;89.48;99195.41;5060444;28;20842;-73
2023/03/07 01:36:51;;;;;;;13.27;11.87;;;;;;;3.86;90.27;99188.59;5044650;28;20642;-73
2023/03/07 01:39:17;;;;;;;14.03;12.53;;;;;;;3.84;90.80;99192.84;5043287;28;20213;-73
2023/03/07 01:41:43;;;;;;;14.00;12.67;;;;;;;3.85;91.70;99184.31;5043976;28;20229;-73
2023/03/07 01:44:22;;;;;;;14.47;12.87;;;;;;;3.88;92.46;99182.59;5041835;28;20685;-72
2023/03/07 01:46:52;;;;;;;15.30;12.83;;;;;;;3.87;93.59;99182.63;5039427;28;20197;-74
2023/03/07 01:49:34;;;;;;;14.03;12.63;;;;;;;3.81;94.02;99181.75;5039107;28;20258;-72
2023/03/07 01:52:03;;;;;;;16.63;14.13;;;;;;;3.80;95.12;99182.59;5046142;28;20210;-73
2023/03/07 01:54:31;;;;;;;15.47;13.77;;;;;;;3.76;96.04;99183.47;5045450;28;20187;-72
2023/03/07 01:56:57;;;;;;;14.53;13.13;;;;;;;3.70;96.63;99173.22;5063379;28;20194;-73
2023/03/07 01:59:50;;;;;;;15.63;14.03;;;;;;;3.69;97.23;99171.50;5046200;28;20206;-72
2023/03/07 02:02:21;;;;;;;17.03;14.73;;;;;;;3.70;97.92;99164.69;5041835;28;20872;-73
2023/03/07 02:04:55;;;;;;;16.47;14.40;;;;;;;3.64;98.29;99147.63;5043120;28;20759;-73
2023/03/07 02:07:23;;;;;;;15.00;13.50;;;;;;;3.54;98.67;99154.44;5043203;28;20175;-73
2023/03/07 02:09:51;;;;;;;14.77;13.27;;;;;;;3.50;99.18;99147.63;5042718;28;20216;-73
2023/03/07 02:12:17;;;;;;;15.40;13.80;;;;;;;3.49;99.39;99145.91;5044752;28;20232;-72
2023/03/07 02:14:44;;;;;;;14.60;13.10;;;;;;;3.46;99.39;99144.22;5041562;28;20182;-73
2023/03/07 02:17:09;;;;;;;13.30;11.90;;;;;;;3.45;99.72;99137.38;5043083;28;20289;-73
2023/03/07 02:19:41;;;;;;;13.90;12.43;;;;;;;3.44;99.57;99130.56;5044625;28;20214;-73
2023/03/07 02:22:10;;;;;;;13.73;12.37;;;;;;;3.45;99.54;99131.41;5044463;28;21293;-73
2023/03/07 02:24:39;;;;;;;13.83;12.37;;;;;;;3.47;99.36;99129.69;5044234;28;20213;-73
2023/03/07 02:27:05;;;;;;;13.17;11.87;;;;;;;3.48;99.24;99133.97;5045242;28;20190;-73
2023/03/07 02:29:30;;;;;;;13.13;11.63;;;;;;;3.49;98.95;99122.88;5042724;28;20593;-73
2023/03/07 02:31:56;;;;;;;12.47;11.37;;;;;;;3.50;98.77;99122.03;5043297;28;20199;-73
2023/03/07 02:34:27;;;;;;;12.33;11.13;;;;;;;3.54;98.48;99115.22;5043422;28;20641;-72
2023/03/07 02:37:29;;;;;;;12.93;11.03;;;;;;;3.55;98.14;99114.34;5036264;28;20196;-74
2023/03/07 02:39:56;;;;;;;11.43;10.27;;;;;;;3.58;97.81;99112.66;5034422;28;20267;-72
2023/03/07 02:42:28;;;;;;;12.13;11.03;;;;;;;3.60;97.49;99116.06;5042732;28;20187;-73
2023/03/07 02:44:59;;;;;;;10.80;9.73;;;;;;;3.61;97.06;99109.25;5043245;28;20705;-73
2023/03/07 02:47:25;;;;;;;13.27;11.90;;;;;;;3.63;96.45;99105.84;5040405;28;20182;-73
2023/03/07 02:49:50;;;;;;;11.70;10.50;;;;;;;3.66;95.75;99104.97;5042848;28;20648;-73
2023/03/07 02:52:15;;;;;;;12.87;11.50;;;;;;;3.68;95.13;99108.38;5042877;28;20791;-73
2023/03/07 02:54:41;;;;;;;12.73;10.83;;;;;;;3.69;94.63;99101.59;5046002;28;20179;-73
2023/03/07 02:57:06;;;;;;;12.50;11.30;;;;;;;3.68;94.05;99098.16;5042370;28;20194;-73
2023/03/07 02:59:31;;;;;;;12.97;11.57;;;;;;;3.69;93.55;99097.31;5044004;28;20211;-73
2023/03/07 03:01:57;;;;;;;12.33;11.13;;;;;;;3.69;93.65;99088.78;5046100;28;20306;-73
2023/03/07 03:04:22;;;;;;;12.50;11.30;;;;;;;3.69;93.23;99094.75;5042894;28;20183;-73
2023/03/07 03:06:48;;;;;;;12.10;10.80;;;;;;;3.70;93.24;99091.34;5044799;28;20210;-73
2023/03/07 03:09:13;;;;;;;13.83;12.43;;;;;;;3.72;93.06;99086.22;5044716;28;20198;-73
2023/03/07 03:11:38;;;;;;;13.57;12.17;;;;;;;3.72;93.30;99078.53;5046698;28;20571;-73
2023/03/07 03:14:04;;;;;;;13.73;12.33;;;;;;;3.71;93.61;99089.63;5046355;28;20655;-73
2023/03/07 03:16:29;;;;;;;13.00;11.70;;;;;;;3.67;94.15;99091.34;5048230;28;20671;-73
2023/03/07 03:18:54;;;;;;;13.97;12.10;;;;;;;3.66;94.46;99085.38;5072879;28;20250;-72
2023/03/07 03:21:20;;;;;;;13.57;12.17;;;;;;;3.68;94.43;99089.66;5056947;28;20198;-73
2023/03/07 03:23:45;;;;;;;13.90;12.37;;;;;;;3.64;94.84;99081.97;5047160;28;20183;-73
2023/03/07 03:26:10;;;;;;;12.00;10.80;;;;;;;3.64;94.77;99088.75;5043845;28;20202;-72
2023/03/07 03:28:37;;;;;;;12.90;11.50;;;;;;;3.67;94.39;99086.22;5047149;28;20210;-73
2023/03/07 03:31:09;;;;;;;13.17;11.77;;;;;;;3.69;94.32;99083.66;5042403;28;20211;-73
2023/03/07 03:33:35;;;;;;;12.67;11.47;;;;;;;3.67;94.48;99086.22;5044082;28;20202;-73
2023/03/07 03:36:06;;;;;;;13.67;12.27;;;;;;;3.68;94.56;99087.91;5044082;28;20183;-73
2023/03/07 03:38:32;;;;;;;14.13;12.73;;;;;;;3.68;94.71;99076.84;5044953;28;20217;-73
2023/03/07 03:40:57;;;;;;;13.70;12.33;;;;;;;3.65;94.99;99076.00;5058794;28;20274;-73
2023/03/07 03:43:23;;;;;;;13.43;12.13;;;;;;;3.63;95.04;99071.75;5046506;28;20194;-73
2023/03/07 03:45:55;;;;;;;13.10;11.83;;;;;;;3.64;95.11;99068.31;5042935;28;20194;-73
2023/03/07 03:48:21;;;;;;;13.43;12.03;;;;;;;3.60;95.05;99069.19;5045907;28;20198;-72
2023/03/07 03:50:46;;;;;;;13.43;12.03;;;;;;;3.59;95.08;99063.19;5042579;28;20190;-72
2023/03/07 03:53:12;;;;;;;13.03;11.73;;;;;;;3.60;95.21;99066.63;5043616;28;20277;-73
2023/03/07 03:55:37;;;;;;;12.83;11.53;;;;;;;3.58;94.90;99058.91;5046192;28;20221;-73
2023/03/07 03:58:03;;;;;;;13.27;11.93;;;;;;;3.57;94.72;99056.38;5044187;28;20206;-73
2023/03/07 04:00:29;;;;;;;13.03;11.43;;;;;;;3.58;93.96;99053.81;5045540;28;20194;-73
2023/03/07 04:02:56;;;;;;;13.10;11.80;;;;;;;3.58;93.59;99047.84;5040954;28;20318;-72
2023/03/07 04:05:21;;;;;;;11.97;10.73;;;;;;;3.57;93.36;99051.25;5041660;28;20296;-73
2023/03/07 04:07:47;;;;;;;12.50;11.30;;;;;;;3.55;93.41;99051.28;5042714;28;20560;-73
2023/03/07 04:10:12;;;;;;;13.27;11.90;;;;;;;3.54;93.03;99044.44;5040331;28;20273;-73
2023/03/07 04:12:37;;;;;;;11.40;10.30;;;;;;;3.55;92.99;99040.19;5042573;28;20207;-73
2023/03/07 04:15:04;;;;;;;12.53;11.23;;;;;;;3.54;92.84;99041.03;5043093;28;20246;-72
2023/03/07 04:17:29;;;;;;;12.23;11.00;;;;;;;3.54;92.67;99047.00;5040572;28;20863;-72
2023/03/07 04:19:55;;;;;;;12.53;10.93;;;;;;;3.53;92.53;99031.66;5044722;28;20207;-74
2023/03/07 04:22:20;;;;;;;13.13;11.73;;;;;;;3.51;92.46;99044.44;5056847;28;20179;-73
2023/03/07 04:24:46;;;;;;;13.43;11.90;;;;;;;3.51;92.54;99026.53;5045772;28;20190;-73
2023/03/07 04:27:11;;;;;;;12.00;9.93;;;;;;;3.51;92.03;99031.66;5037083;28;20926;-73
2023/03/07 04:29:36;;;;;;;12.27;11.07;;;;;;;3.53;91.72;99026.53;5043823;28;20237;-73
2023/03/07 04:32:01;;;;;;;11.53;10.33;;;;;;;3.53;91.54;99024.84;5043271;28;20240;-73
2023/03/07 04:34:27;;;;;;;11.37;10.27;;;;;;;3.55;91.32;99018.03;5042229;28;20186;-73
2023/03/07 04:36:52;;;;;;;12.60;11.27;;;;;;;3.55;91.30;99018.03;5057353;28;20283;-72
2023/03/07 04:39:17;;;;;;;11.73;10.13;;;;;;;3.57;91.08;99020.56;5043139;28;20214;-73
2023/03/07 04:41:43;;;;;;;14.00;10.83;;;;;;;3.58;90.89;99014.59;5042667;28;20802;-73
2023/03/07 04:44:08;;;;;;;11.87;10.57;;;;;;;3.58;90.87;99023.09;5042364;28;20245;-73
2023/03/07 04:46:34;;;;;;;12.73;11.20;;;;;;;3.58;90.61;99010.31;5043344;28;20220;-73
2023/03/07 04:48:59;;;;;;;11.33;10.20;;;;;;;3.59;90.32;99014.59;5043200;28;20639;-73
2023/03/07 04:51:25;;;;;;;11.67;10.47;;;;;;;3.61;90.18;99015.44;5043276;28;20217;-73
2023/03/07 04:53:50;;;;;;;11.57;10.37;;;;;;;3.62;90.05;99009.47;5061372;28;20855;-73
2023/03/07 04:56:16;;;;;;;11.53;10.40;;;;;;;3.64;89.72;99009.44;5040464;28;20726;-73
2023/03/07 04:58:42;;;;;;;11.77;10.57;;;;;;;3.64;89.54;99000.09;5042922;28;20262;-73
2023/03/07 05:01:07;;;;;;;11.47;10.27;;;;;;;3.66;89.31;99000.06;5039089;28;20893;-73
2023/03/07 05:03:34;;;;;;;11.23;10.10;;;;;;;3.66;89.19;98994.97;5041901;28;20187;-73
2023/03/07 05:06:02;;;;;;;12.20;10.47;;;;;;;3.66;88.99;98993.28;5042016;28;20252;-73
2023/03/07 05:08:27;;;;;;;11.97;10.67;;;;;;;3.68;88.67;98994.97;5046319;28;20206;-73
2023/03/07 05:10:52;;;;;;;12.33;11.03;;;;;;;3.69;88.39;98996.69;5037882;28;20219;-73
2023/03/07 05:13:17;;;;;;;12.23;10.93;;;;;;;3.72;87.83;98994.09;5041831;28;20248;-72
2023/03/07 05:15:43;;;;;;;11.17;10.07;;;;;;;3.71;87.92;98993.25;5044284;28;20182;-73
2023/03/07 05:18:08;;;;;;;12.13;10.93;;;;;;;3.70;87.98;98991.53;5040439;28;20207;-73
2023/03/07 05:20:33;;;;;;;12.70;10.37;;;;;;;3.70;88.15;98991.53;5040647;28;20880;-73
2023/03/07 05:22:59;;;;;;;11.97;10.77;;;;;;;3.70;88.23;98986.44;5046229;28;20194;-73
2023/03/07 05:25:24;;;;;;;10.73;9.63;;;;;;;3.69;88.28;98983.88;5042389;28;20663;-73
2023/03/07 05:27:49;;;;;;;11.03;10.03;;;;;;;3.71;88.06;98989.81;5043674;28;22103;-72
2023/03/07 05:30:15;;;;;;;11.67;10.23;;;;;;;3.72;87.81;98977.03;5044468;28;20201;-73
2023/03/07 05:32:41;;;;;;;11.27;10.17;;;;;;;3.74;87.48;98982.16;5052120;28;20648;-72
2023/03/07 05:35:09;;;;;;;11.77;10.53;;;;;;;3.73;87.15;98981.31;5038383;28;20238;-72
2023/03/07 05:37:34;;;;;;;11.80;10.60;;;;;;;3.70;87.58;98980.47;5044818;28;20183;-73
2023/03/07 05:40:00;;;;;;;12.10;10.57;;;;;;;3.71;87.79;98977.91;5039141;28;20217;-73
2023/03/07 05:42:25;;;;;;;11.23;10.13;;;;;;;3.71;87.76;98979.59;5041916;28;20652;-73
2023/03/07 05:44:50;;;;;;;12.00;10.70;;;;;;;3.71;87.39;98974.47;5044659;28;20191;-73
2023/03/07 05:47:15;;;;;;;12.17;11.07;;;;;;;3.71;87.28;98975.34;5036383;28;20187;-73
2023/03/07 05:49:41;;;;;;;11.63;10.43;;;;;;;3.69;87.30;98964.25;5042985;28;20202;-73
2023/03/07 05:52:06;;;;;;;11.30;10.20;;;;;;;3.69;87.27;98961.69;5039266;28;20293;-73
2023/03/07 05:54:32;;;;;;;12.23;10.70;;;;;;;3.69;87.28;98958.28;5033115;28;20201;-73
2023/03/07 05:56:57;;;;;;;11.87;10.57;;;;;;;3.67;87.20;98960.84;5057060;28;20199;-73
2023/03/07 05:59:22;;;;;;;11.47;10.33;;;;;;;3.66;87.36;98954.03;5044021;28;20951;-73
2023/03/07 06:01:47;;;;;;;11.27;10.00;;;;;;;3.65;87.30;98954.88;5040485;28;20210;-73
2023/03/07 06:04:13;;;;;;;11.47;10.27;;;;;;;3.64;87.37;98948.91;5041969;28;20191;-73
2023/03/07 06:06:38;;;;;;;12.00;10.77;;;;;;;3.68;87.08;98951.47;5033234;28;20187;-72
2023/03/07 06:09:04;;;;;;;10.27;9.27;;;;;;;3.67;86.91;98953.16;5051738;28;20609;-73
2023/03/07 06:11:32;;;;;;;11.97;10.37;;;;;;;3.68;86.73;98942.06;5039864;28;20273;-73
2023/03/07 06:13:58;;;;;;;10.83;9.53;;;;;;;3.69;86.75;98955.75;5042422;28;20279;-73
2023/03/07 06:16:23;;;;;;;12.33;11.03;;;;;;;3.71;86.31;98944.63;5041400;28;20195;-73
2023/03/07 06:18:48;;;;;;;10.60;9.50;;;;;;;3.70;86.44;98936.97;5039200;28;20326;-73
2023/03/07 06:21:16;;;;;;;11.87;10.00;;;;;;;3.72;86.51;98943.78;5035921;28;20266;-73
2023/03/07 06:23:41;;;;;;;14.83;10.80;;;;;;;3.77;85.95;98947.19;5037599;28;20233;-73
2023/03/07 06:26:09;;;;;;;10.53;9.53;;;;;;;3.76;86.24;98940.38;5041704;28;20194;-73
2023/03/07 06:28:35;;;;;;;10.67;9.57;;;;;;;3.82;86.37;98952.28;5039847;28;20644;-73
2023/03/07 06:31:07;;;;;;;11.87;10.77;;;;;;;3.88;86.09;98951.41;5044125;28;20235;-73
2023/03/07 06:33:32;;;;;;;12.70;10.27;;;;;;;3.91;85.99;98944.56;5038215;28;20219;-74
2023/03/07 06:35:58;;;;;;;11.80;10.00;;;;;;;3.98;85.57;98953.06;5043364;28;20227;-73
2023/03/07 06:38:23;;;;;;;11.50;10.30;;;;;;;4.04;85.21;98947.06;5038630;28;20203;-72
2023/03/07 06:40:55;;;;;;;10.97;9.87;;;;;;;4.07;85.11;98944.50;5035474;28;20187;-73
2023/03/07 06:43:20;;;;;;;11.30;10.10;;;;;;;4.09;84.99;98947.91;5035900;28;20257;-72
2023/03/07 06:45:46;;;;;;;13.00;10.67;;;;;;;4.13;85.06;98952.19;5042205;28;20190;-72
2023/03/07 06:48:11;;;;;;;10.77;9.67;;;;;;;4.15;85.06;98944.47;5040471;28;21003;-73
2023/03/07 06:50:37;;;;;;;10.97;9.87;;;;;;;4.20;84.99;98945.31;5038018;28;20186;-73
2023/03/07 06:53:02;;;;;;;12.13;10.83;;;;;;;4.26;84.54;98947.81;5038142;28;20217;-73
2023/03/07 06:55:28;;;;;;;11.93;10.13;;;;;;;4.31;84.52;98946.09;5039214;28;20668;-72
2023/03/07 06:57:53;;;;;;;10.97;9.77;;;;;;;4.35;84.36;98944.38;5041815;28;20218;-73
2023/03/07 07:00:19;;;;;;;9.80;8.90;;;;;;;4.39;84.36;98940.94;5031608;28;20188;-73
2023/03/07 07:02:44;;;;;;;11.57;10.47;;;;;;;4.44;84.11;98949.47;5058129;28;20188;-72
2023/03/07 07:05:09;;;;;;;10.50;9.43;;;;;;;4.49;83.84;98947.72;5052797;28;20274;-73
2023/03/07 07:07:34;;;;;;;10.87;9.77;;;;;;;4.53;83.98;98946.00;5039347;28;20191;-73
2023/03/07 07:10:00;;;;;;;11.60;10.40;;;;;;;4.57;83.61;98953.66;5032676;28;20220;-73
2023/03/07 07:12:26;;;;;;;12.77;11.53;;;;;;;4.59;83.57;98961.31;5038510;28;20936;-73
2023/03/07 07:14:51;;;;;;;10.83;9.73;;;;;;;4.63;83.59;98957.88;5035761;28;20192;-73
2023/03/07 07:17:16;;;;;;;11.00;10.00;;;;;;;4.64;83.30;98957.03;5041398;28;20195;-73
2023/03/07 07:19:42;;;;;;;10.97;9.87;;;;;;;4.67;82.69;98956.16;5041154;28;20322;-72
2023/03/07 07:22:10;;;;;;;10.63;9.60;;;;;;;4.69;82.66;98969.81;5034381;28;20218;-73
2023/03/07 07:24:37;;;;;;;12.30;10.50;;;;;;;4.75;82.31;98958.66;5042769;28;20197;-73
2023/03/07 07:27:02;;;;;;;13.27;9.57;;;;;;;4.79;82.19;98960.34;5041894;28;20645;-73
2023/03/07 07:29:28;;;;;;;10.20;9.10;;;;;;;4.84;82.16;98968.88;5042850;28;20216;-73
2023/03/07 07:31:53;;;;;;;10.80;9.70;;;;;;;4.93;82.11;98970.50;5041460;28;20932;-73
2023/03/07 07:34:18;;;;;;;10.53;9.43;;;;;;;4.97;81.74;98964.50;5036064;28;20220;-74
2023/03/07 07:36:44;;;;;;;11.43;9.73;;;;;;;5.02;81.07;98963.59;5041043;28;20203;-73
2023/03/07 07:39:11;;;;;;;11.17;10.07;;;;;;;5.06;81.36;98961.88;5041329;28;20211;-73
2023/03/07 07:41:37;;;;;;;11.00;9.80;;;;;;;5.14;81.19;98960.09;5045045;28;20218;-73
2023/03/07 07:44:02;;;;;;;10.10;9.10;;;;;;;5.23;81.50;98959.16;5044514;28;20210;-73
2023/03/07 07:46:27;;;;;;;11.27;10.10;;;;;;;5.34;81.36;98954.78;5042537;28;20740;-73
2023/03/07 07:48:54;;;;;;;11.27;10.10;;;;;;;5.43;80.51;98951.28;5041635;28;20375;-73
2023/03/07 07:51:19;;;;;;;10.37;9.47;;;;;;;5.46;80.16;98956.38;5046231;28;20304;-73
2023/03/07 07:53:44;;;;;;;10.23;9.23;;;;;;;5.52;79.95;98958.03;5046632;28;20619;-73
2023/03/07 07:56:10;;;;;;;10.77;9.53;;;;;;;5.58;79.49;98951.97;5038856;28;20188;-73
2023/03/07 07:58:35;;;;;;;11.20;9.73;;;;;;;5.64;79.33;98949.38;5044585;28;20234;-73
2023/03/07 08:01:10;;;;;;;10.13;8.93;;;;;;;5.71;79.14;98953.56;5040640;28;20195;-73
2023/03/07 08:03:35;;;;;;;12.97;9.30;;;;;;;5.75;78.25;98949.22;5035584;28;20266;-73
2023/03/07 08:06:00;;;;;;;10.00;9.00;;;;;;;5.77;78.60;98950.06;5041445;28;20194;-73
2023/03/07 08:08:26;;;;;;;9.87;8.83;;;;;;;5.80;78.43;98947.47;5044197;28;20250;-73
2023/03/07 08:10:51;;;;;;;10.30;9.30;;;;;;;5.83;78.14;98950.00;5041037;28;20216;-73
2023/03/07 08:13:16;;;;;;;10.33;8.87;;;;;;;5.83;77.47;98947.44;5060321;28;20193;-73
2023/03/07 08:15:42;;;;;;;11.53;9.63;;;;;;;5.80;77.36;98953.47;5042287;28;21047;-73
2023/03/07 08:18:09;;;;;;;10.17;9.13;;;;;;;5.76;77.92;98945.81;5043157;28;20733;-73
2023/03/07 08:20:36;;;;;;;10.90;8.70;;;;;;;5.76;78.14;98941.53;5041104;28;20188;-73
2023/03/07 08:23:02;;;;;;;9.90;9.00;;;;;;;5.77;78.38;98948.38;5062499;28;20216;-73
2023/03/07 08:25:28;;;;;;;10.97;9.87;;;;;;;5.83;78.24;98926.03;5044024;28;20219;-73
2023/03/07 08:27:54;;;;;;;10.00;9.00;;;;;;;5.91;77.45;98940.50;5039669;28;20304;-73
2023/03/07 08:30:27;;;;;;;10.03;9.13;;;;;;;5.99;77.30;98945.53;5044912;28;20583;-73
2023/03/07 08:32:54;;;;;;;9.63;8.70;;;;;;;6.04;77.32;98935.25;5043469;28;20224;-73
2023/03/07 08:35:20;;;;;;;10.30;9.33;;;;;;;6.14;77.35;98939.41;5044329;28;20189;-72
2023/03/07 08:37:47;;;;;;;9.67;8.67;;;;;;;6.19;76.96;98940.22;5042162;28;20195;-73
2023/03/07 08:40:14;;;;;;;11.03;8.37;;;;;;;6.27;76.91;98946.94;5043913;28;20206;-73
2023/03/07 08:42:40;;;;;;;10.27;9.27;;;;;;;6.24;76.33;98935.84;5043425;28;20197;-73
2023/03/07 08:45:06;;;;;;;10.03;9.03;;;;;;;6.24;76.66;98940.97;5044440;28;20315;-73
2023/03/07 08:47:32;;;;;;;10.40;8.97;;;;;;;6.29;76.81;98937.50;5045476;28;20712;-73
2023/03/07 08:49:57;;;;;;;10.07;9.07;;;;;;;6.31;76.67;98933.22;5038846;28;20809;-73
2023/03/07 08:52:22;;;;;;;9.27;8.37;;;;;;;6.39;77.17;98928.81;5042680;28;20765;-73
2023/03/07 08:54:48;;;;;;;10.67;9.53;;;;;;;6.44;76.72;98932.16;5041038;28;20185;-73
2023/03/07 08:57:13;;;;;;;9.37;8.57;;;;;;;6.49;76.56;98934.66;5041286;28;20186;-73
2023/03/07 08:59:38;;;;;;;11.10;9.33;;;;;;;6.52;76.58;98932.88;5043632;28;20194;-73
2023/03/07 09:02:03;;;;;;;10.27;9.27;;;;;;;6.55;76.33;98927.72;5040859;28;20704;-73
2023/03/07 09:04:29;;;;;;;9.50;8.60;;;;;;;6.56;76.69;98929.41;5044484;28;20187;-73
2023/03/07 09:06:55;;;;;;;10.50;9.50;;;;;;;6.61;76.40;98928.50;5044356;28;20192;-73
2023/03/07 09:09:21;;;;;;;11.00;9.93;;;;;;;6.59;76.50;98933.66;5039609;28;20205;-73
2023/03/07 09:11:47;;;;;;;10.83;9.77;;;;;;;6.60;76.24;98922.50;5037129;28;20225;-73
2023/03/07 09:14:12;;;;;;;9.60;8.70;;;;;;;6.63;76.20;98930.19;5037725;28;20602;-73
2023/03/07 09:16:37;;;;;;;9.93;8.93;;;;;;;6.68;75.87;98930.09;5037280;28;20192;-73
2023/03/07 09:19:03;;;;;;;10.23;9.23;;;;;;;6.78;75.99;98934.25;5043904;28;20210;-73
2023/03/07 09:21:28;;;;;;;10.13;9.23;;;;;;;6.87;75.88;98917.84;5040854;28;20273;-73
2023/03/07 09:23:53;;;;;;;9.70;8.80;;;;;;;7.02;75.57;98929.56;5040861;28;20178;-73
2023/03/07 09:26:19;;;;;;;10.37;9.37;;;;;;;7.11;75.25;98916.56;5041730;28;20192;-73
2023/03/07 09:28:45;;;;;;;9.80;8.80;;;;;;;7.15;75.03;98925.94;5043858;28;20262;-73
2023/03/07 09:31:12;;;;;;;9.83;8.87;;;;;;;7.19;74.74;98916.41;5042969;28;20230;-73
2023/03/07 09:33:38;;;;;;;9.40;8.50;;;;;;;7.30;74.94;98918.81;5038615;28;20615;-73
2023/03/07 09:36:10;;;;;;;11.47;9.63;;;;;;;7.36;74.30;98912.72;5041817;28;20215;-73
2023/03/07 09:38:36;;;;;;;9.97;8.70;;;;;;;7.42;73.61;98918.59;5041172;28;20772;-72
2023/03/07 09:41:39;;;;;;;10.33;9.33;;;;;;;7.38;73.69;98909.25;5036772;28;20202;-73
2023/03/07 09:44:14;;;;;;;10.93;9.23;;;;;;;7.36;72.91;98907.56;5056603;28;20229;-74
2023/03/07 09:46:58;;;;;;;10.00;9.10;;;;;;;7.29;72.93;98910.25;5041857;28;20630;-73
2023/03/07 09:49:47;;;;;;;10.83;9.83;;;;;;;7.27;73.38;98909.44;5041235;28;20206;-73
2023/03/07 09:52:18;;;;;;;10.97;9.87;;;;;;;7.28;73.65;98908.56;5042282;28;20223;-75
2023/03/07 09:54:58;;;;;;;10.10;9.10;;;;;;;7.29;73.70;98902.53;5038601;28;20198;-72
2023/03/07 09:57:36;;;;;;;9.93;9.00;;;;;;;7.32;73.71;98891.34;5042807;28;20289;-73
2023/03/07 10:00:13;;;;;;;10.40;9.40;;;;;;;7.30;73.44;98896.53;5042064;28;20254;-73
2023/03/07 10:02:48;;;;;;;10.40;9.50;;;;;;;7.21;73.50;98888.94;5038514;28;21162;-72
2023/03/07 10:05:31;;;;;;;11.17;10.00;;;;;;;7.07;73.37;98893.47;5041042;28;20236;-73
2023/03/07 10:07:59;;;;;;;10.87;9.77;;;;;;;6.92;73.79;98890.28;5041445;28;20184;-73
2023/03/07 10:10:45;;;;;;;10.50;9.40;;;;;;;6.81;74.18;98889.63;5042886;28;20197;-73
2023/03/07 10:13:52;;;;;;;10.47;9.43;;;;;;;6.72;74.50;98888.06;5040608;28;20693;-73
2023/03/07 10:16:44;;;;;;;11.93;10.30;;;;;;;6.66;74.31;98872.72;5033320;28;20225;-73
2023/03/07 10:19:29;;;;;;;10.57;9.50;;;;;;;6.64;74.00;98883.03;5037856;28;20201;-73
2023/03/07 10:22:26;;;;;;;12.67;9.47;;;;;;;6.67;74.11;98869.28;5035797;28;20183;-73
2023/03/07 10:24:52;;;;;;;10.73;9.63;;;;;;;6.79;73.17;98874.25;5040731;28;20240;-73
2023/03/07 10:27:21;;;;;;;10.50;9.40;;;;;;;6.95;72.42;98879.13;5044963;28;20189;-73
2023/03/07 10:29:52;;;;;;;10.17;9.17;;;;;;;7.17;72.07;98866.75;5040232;28;20244;-72
2023/03/07 10:32:32;;;;;;;10.87;9.77;;;;;;;7.43;70.69;98865.41;5051191;28;20237;-73
2023/03/07 10:35:14;;;;;;;10.60;9.50;;;;;;;7.68;70.20;98855.47;5043766;28;20284;-73
2023/03/07 10:38:13;;;;;;;10.53;9.40;;;;;;;7.93;69.24;98854.97;5039883;28;20194;-72
2023/03/07 10:40:47;;;;;;;10.20;9.10;;;;;;;8.13;68.74;98851.09;5037014;28;20205;-73
2023/03/07 10:43:27;;;;;;;9.67;8.77;;;;;;;8.26;67.50;98849.09;5049511;28;20184;-73
2023/03/07 10:46:10;;;;;;;9.10;8.10;;;;;;;8.41;66.88;98853.06;5041908;28;20201;-73
2023/03/07 10:48:39;;;;;;;9.80;8.83;;;;;;;8.52;66.43;98849.38;5042044;28;20225;-73
2023/03/07 10:51:26;;;;;;;9.03;8.13;;;;;;;8.68;65.70;98851.59;5040984;28;20186;-73
2023/03/07 10:53:52;;;;;;;8.67;7.87;;;;;;;8.81;65.14;98844.38;5037819;28;21043;-73
2023/03/07 10:56:18;;;;;;;8.87;7.97;;;;;;;8.92;64.57;98857.03;5043457;28;20249;-73
2023/03/07 10:59:08;;;;;;;9.57;8.03;;;;;;;9.10;64.48;98851.41;5041618;28;20268;-73
2023/03/07 11:01:35;;;;;;;10.03;8.60;;;;;;;9.24;64.37;98847.59;5034047;28;20340;-73
2023/03/07 11:04:05;;;;;;;9.27;8.20;;;;;;;9.29;63.63;98841.41;5039999;28;20187;-73
2023/03/07 11:06:54;;;;;;;7.83;7.10;;;;;;;9.26;63.84;98853.56;5045036;28;20325;-73
2023/03/07 11:09:22;;;;;;;9.17;8.00;;;;;;;9.33;63.09;98851.66;5036900;28;20702;-73
2023/03/07 11:11:49;;;;;;;8.67;7.70;;;;;;;9.33;62.91;98852.50;5043865;28;20222;-73
2023/03/07 11:14:15;;;;;;;8.37;7.57;;;;;;;9.33;63.17;98844.75;5041933;28;20191;-73
2023/03/07 11:16:47;;;;;;;8.67;7.87;;;;;;;9.37;62.58;98838.63;5042671;28;20647;-73
2023/03/07 11:19:32;;;;;;;7.83;7.13;;;;;;;9.45;63.07;98838.41;5044303;28;20773;-73
2023/03/07 11:22:00;;;;;;;8.37;7.53;;;;;;;9.57;62.98;98838.06;5046476;28;20194;-73
2023/03/07 11:24:35;;;;;;;11.20;9.43;;;;;;;9.65;62.46;98829.28;5057292;28;20193;-73
2023/03/07 11:27:00;;;;;;;12.13;10.77;;;;;;;9.70;62.28;98828.25;5045390;28;20201;-73
2023/03/07 11:29:27;;;;;;;11.00;8.70;;;;;;;9.79;62.02;98834.03;5045068;28;20865;-73
2023/03/07 11:32:05;;;;;;;8.67;7.87;;;;;;;9.84;61.65;98827.00;5037067;28;20215;-73
2023/03/07 11:34:42;;;;;;;9.30;8.40;;;;;;;9.86;61.60;98810.53;5044300;28;20188;-73